Time;durP1;ratioP1;P1;durP2;ratioP2;P2;SDS_P1;SDS_P2;PMS_P1;PMS_P2;Temp;Humidity;BMP_temperature;BMP_pressure;BME280_temperature;BME280_humidity;BME280_pressure;Samples;Min_cycle;Max_cycle;Signal;HPM_P1;HPM_P2
2022/08/21 00:00:01;;;;;;;11.18;5.60;;;;;;;12.47;100.00;101743.72;5205319;28;20534;-73
2022/08/21 00:02:31;;;;;;;11.77;5.18;;;;;;;12.47;100.00;101740.19;5205184;28;20084;-74
2022/08/21 00:05:03;;;;;;;10.30;5.47;;;;;;;12.46;100.00;101746.59;5204947;28;20028;-74
2022/08/21 00:07:34;;;;;;;11.00;5.05;;;;;;;12.40;100.00;101738.13;5196663;28;20033;-73
2022/08/21 00:10:06;;;;;;;11.27;5.88;;;;;;;12.38;100.00;101733.91;5200281;28;20022;-73
2022/08/21 00:12:37;;;;;;;12.98;5.75;;;;;;;12.33;100.00;101723.59;5203257;28;20476;-73
2022/08/21 00:15:09;;;;;;;13.18;5.55;;;;;;;12.31;100.00;101724.78;5203989;28;20048;-73
2022/08/21 00:17:40;;;;;;;9.77;5.50;;;;;;;12.26;100.00;101719.84;5204554;28;20030;-74
2022/08/21 00:20:14;;;;;;;12.88;5.68;;;;;;;12.22;100.00;101723.00;5204268;28;20032;-74
2022/08/21 00:22:44;;;;;;;18.98;6.63;;;;;;;12.18;100.00;101722.47;5204257;28;20028;-73
2022/08/21 00:25:16;;;;;;;16.80;5.97;;;;;;;12.14;100.00;101713.84;5203370;28;20463;-74
2022/08/21 00:27:47;;;;;;;13.65;5.43;;;;;;;12.12;100.00;101715.03;5197889;28;20072;-73
2022/08/21 00:30:19;;;;;;;12.77;4.97;;;;;;;12.10;100.00;101709.81;5196873;28;20025;-73
2022/08/21 00:32:53;;;;;;;10.15;4.55;;;;;;;12.07;100.00;101712.81;5202814;28;20026;-73
2022/08/21 00:35:27;;;;;;;12.05;4.88;;;;;;;12.04;100.00;101710.41;5203107;28;20056;-73
2022/08/21 00:37:58;;;;;;;12.30;4.88;;;;;;;12.01;100.00;101705.38;5203786;28;20030;-73
2022/08/21 00:40:38;;;;;;;9.90;5.38;;;;;;;11.97;100.00;101701.28;5203751;28;20456;-73
2022/08/21 00:43:09;;;;;;;10.98;5.43;;;;;;;11.95;100.00;101713.19;5203803;28;20037;-73
2022/08/21 00:45:40;;;;;;;11.35;5.88;;;;;;;11.91;100.00;101707.28;5203750;28;20105;-73
2022/08/21 00:48:11;;;;;;;14.25;5.57;;;;;;;11.86;100.00;101714.97;5203468;28;20523;-73
2022/08/21 00:50:48;;;;;;;10.07;5.47;;;;;;;11.81;100.00;101710.03;5203705;28;20029;-73
2022/08/21 00:53:18;;;;;;;10.55;5.28;;;;;;;11.81;100.00;101717.25;5202456;28;20033;-74
2022/08/21 00:55:50;;;;;;;10.20;4.45;;;;;;;11.81;100.00;101719.94;5203607;28;20058;-73
2022/08/21 00:58:21;;;;;;;8.57;4.75;;;;;;;11.81;100.00;101711.88;5203258;28;20026;-73
2022/08/21 01:00:52;;;;;;;9.00;5.10;;;;;;;11.76;100.00;101716.84;5203572;28;20029;-74
2022/08/21 01:03:25;;;;;;;10.25;5.47;;;;;;;11.73;100.00;101712.63;5203481;28;20033;-74
2022/08/21 01:05:55;;;;;;;15.75;5.43;;;;;;;11.71;100.00;101720.00;5202793;28;20027;-74
2022/08/21 01:08:29;;;;;;;11.93;5.13;;;;;;;11.70;100.00;101720.13;5203779;28;20017;-74
2022/08/21 01:11:00;;;;;;;13.73;5.38;;;;;;;11.68;100.00;101721.13;5203363;28;20155;-74
2022/08/21 01:13:34;;;;;;;15.70;4.85;;;;;;;11.65;100.00;101708.03;5203616;28;20033;-74
2022/08/21 01:16:09;;;;;;;15.57;5.22;;;;;;;11.62;100.00;101710.16;5202801;28;20021;-74
2022/08/21 01:18:41;;;;;;;8.48;5.15;;;;;;;11.59;100.00;101711.28;5203413;28;20029;-74
2022/08/21 01:21:14;;;;;;;12.32;5.22;;;;;;;11.55;100.00;101717.16;5203490;28;20033;-74
2022/08/21 01:23:50;;;;;;;10.65;5.25;;;;;;;11.51;100.00;101715.75;5203223;28;20101;-75
2022/08/21 01:26:25;;;;;;;10.80;5.20;;;;;;;11.47;100.00;101711.66;5202955;28;20025;-75
2022/08/21 01:29:00;;;;;;;12.60;6.00;;;;;;;11.45;100.00;101717.22;5199976;28;20113;-74
2022/08/21 01:31:32;;;;;;;12.00;5.20;;;;;;;11.44;100.00;101711.97;5203439;28;20021;-74
2022/08/21 01:34:04;;;;;;;9.38;4.50;;;;;;;11.40;100.00;101722.19;5202996;28;20075;-74
2022/08/21 01:36:34;;;;;;;10.18;5.30;;;;;;;11.36;100.00;101721.63;5202774;28;20518;-74
2022/08/21 01:39:05;;;;;;;6.78;4.28;;;;;;;11.32;100.00;101719.41;5202951;28;20026;-76
2022/08/21 01:41:37;;;;;;;12.82;5.50;;;;;;;11.28;100.00;101710.78;5204903;28;20025;-75
2022/08/21 01:44:08;;;;;;;12.13;4.55;;;;;;;11.27;100.00;101717.16;5207048;28;20026;-75
2022/08/21 01:46:38;;;;;;;14.02;5.45;;;;;;;11.26;100.00;101712.78;5207400;28;20061;-76
2022/08/21 01:49:09;;;;;;;7.50;4.30;;;;;;;11.24;100.00;101713.91;5207166;28;20104;-75
2022/08/21 01:51:40;;;;;;;9.60;5.10;;;;;;;11.22;100.00;101711.38;5207637;28;20453;-75
2022/08/21 01:54:11;;;;;;;9.55;4.40;;;;;;;11.22;100.00;101716.75;5206310;28;20052;-75
2022/08/21 01:56:45;;;;;;;11.98;4.50;;;;;;;11.20;100.00;101710.69;5206996;28;20033;-75
2022/08/21 01:59:16;;;;;;;7.70;4.72;;;;;;;11.17;100.00;101708.31;5207177;28;20021;-75
2022/08/21 02:01:50;;;;;;;11.40;5.72;;;;;;;11.12;100.00;101714.13;5207208;28;20036;-75
2022/08/21 02:04:22;;;;;;;16.23;6.00;;;;;;;11.07;100.00;101702.13;5206290;28;20105;-75
2022/08/21 02:06:53;;;;;;;8.48;4.95;;;;;;;11.05;100.00;101704.13;5207413;28;20104;-75
2022/08/21 02:09:33;;;;;;;9.10;4.65;;;;;;;11.01;100.00;101706.25;5206904;28;20356;-75
2022/08/21 02:12:04;;;;;;;11.13;5.28;;;;;;;10.99;100.00;101700.19;5206885;28;20040;-75
2022/08/21 02:14:35;;;;;;;14.18;5.32;;;;;;;10.97;100.00;101706.69;5206418;28;20032;-76
2022/08/21 02:17:07;;;;;;;10.60;5.60;;;;;;;10.94;100.00;101707.81;5206729;28;20033;-76
2022/08/21 02:19:38;;;;;;;12.40;4.53;;;;;;;10.90;100.00;101706.47;5206352;28;20029;-74
2022/08/21 02:22:10;;;;;;;10.55;4.47;;;;;;;10.85;100.00;101700.69;5206923;28;20030;-74
2022/08/21 02:24:40;;;;;;;6.93;3.95;;;;;;;10.83;100.00;101702.66;5206177;28;20101;-74
2022/08/21 02:27:11;;;;;;;8.60;3.60;;;;;;;10.79;100.00;101699.44;5206611;28;20033;-74
2022/08/21 02:29:41;;;;;;;5.70;3.50;;;;;;;10.76;100.00;101696.19;5206335;28;20113;-73
2022/08/21 02:32:12;;;;;;;6.47;3.03;;;;;;;10.73;100.00;101696.47;5206097;28;20104;-73
2022/08/21 02:34:42;;;;;;;11.45;5.00;;;;;;;10.69;100.00;101695.91;5200268;28;20423;-74
2022/08/21 02:37:12;;;;;;;11.93;4.60;;;;;;;10.66;100.00;101688.16;5201074;28;20176;-74
2022/08/21 02:39:43;;;;;;;15.88;6.07;;;;;;;10.65;100.00;101699.91;5206754;28;20042;-74
2022/08/21 02:42:14;;;;;;;10.13;5.20;;;;;;;10.63;100.00;101697.34;5207615;28;20056;-74
2022/08/21 02:44:44;;;;;;;12.52;4.15;;;;;;;10.62;100.00;101692.13;5206263;28;20437;-74
2022/08/21 02:47:15;;;;;;;8.93;5.03;;;;;;;10.65;100.00;101694.53;5207348;28;20034;-74
2022/08/21 02:49:45;;;;;;;8.43;3.90;;;;;;;10.63;100.00;101694.66;5207291;28;20107;-73
2022/08/21 02:52:16;;;;;;;11.25;4.30;;;;;;;10.60;100.00;101697.66;5206064;28;20481;-74
2022/08/21 02:54:46;;;;;;;8.57;4.55;;;;;;;10.55;100.00;101691.88;5205060;28;20029;-74
2022/08/21 02:57:16;;;;;;;12.32;4.57;;;;;;;10.52;100.00;101692.16;5205778;28;20022;-74
2022/08/21 02:59:47;;;;;;;8.85;3.95;;;;;;;10.51;100.00;101698.53;5206071;28;20063;-74
2022/08/21 03:02:17;;;;;;;10.70;4.80;;;;;;;10.48;100.00;101688.06;5205638;28;20399;-74
2022/08/21 03:04:48;;;;;;;14.77;5.15;;;;;;;10.48;100.00;101688.06;5205664;28;20032;-75
2022/08/21 03:07:19;;;;;;;10.35;4.45;;;;;;;10.47;100.00;101689.06;5205994;28;20032;-74
2022/08/21 03:09:49;;;;;;;10.38;4.68;;;;;;;10.46;100.00;101692.75;5205364;28;20159;-74
2022/08/21 03:12:20;;;;;;;14.05;4.88;;;;;;;10.44;100.00;101697.41;5205916;28;20029;-74
2022/08/21 03:14:50;;;;;;;8.95;4.05;;;;;;;10.42;100.00;101688.66;5205351;28;20021;-74
2022/08/21 03:17:21;;;;;;;9.63;4.35;;;;;;;10.40;100.00;101685.28;5205807;28;20022;-74
2022/08/21 03:19:52;;;;;;;9.85;4.60;;;;;;;10.36;100.00;101684.72;5204454;28;20029;-74
2022/08/21 03:22:22;;;;;;;11.02;4.72;;;;;;;10.34;100.00;101688.53;5205456;28;20055;-75
2022/08/21 03:24:53;;;;;;;13.48;4.63;;;;;;;10.32;100.00;101679.78;5204926;28;20075;-75
2022/08/21 03:27:24;;;;;;;9.10;4.50;;;;;;;10.31;100.00;101680.78;5205488;28;20398;-74
2022/08/21 03:29:55;;;;;;;9.60;4.10;;;;;;;10.30;100.00;101684.47;5204890;28;20017;-74
2022/08/21 03:32:26;;;;;;;14.38;4.70;;;;;;;10.29;100.00;101678.25;5204189;28;20044;-74
2022/08/21 03:34:57;;;;;;;10.70;4.07;;;;;;;10.29;100.00;101674.69;5204391;28;20488;-74
2022/08/21 03:37:28;;;;;;;10.13;4.25;;;;;;;10.26;100.00;101673.16;5204161;28;20105;-74
2022/08/21 03:39:59;;;;;;;10.80;3.60;;;;;;;10.24;100.00;101669.78;5205266;28;20528;-74
2022/08/21 03:42:29;;;;;;;31.08;3.55;;;;;;;10.22;100.00;101673.56;5205278;28;20032;-74
2022/08/21 03:45:01;;;;;;;70.80;4.10;;;;;;;10.15;100.00;101675.13;5204469;28;20025;-74
2022/08/21 03:47:32;;;;;;;8.90;2.22;;;;;;;10.07;100.00;101668.63;5204977;28;20298;-75
2022/08/21 03:50:04;;;;;;;8.82;3.00;;;;;;;10.01;100.00;101663.84;5205146;28;20032;-75
2022/08/21 03:52:34;;;;;;;8.85;2.92;;;;;;;9.98;100.00;101664.13;5204841;28;20014;-74
2022/08/21 03:55:06;;;;;;;5.35;2.67;;;;;;;9.96;100.00;101666.13;5205265;28;20022;-75
2022/08/21 03:57:36;;;;;;;6.25;3.17;;;;;;;9.93;100.00;101663.72;5204586;28;20060;-74
2022/08/21 04:00:11;;;;;;;7.50;3.42;;;;;;;9.95;100.00;101666.28;5204679;28;20116;-74
2022/08/21 04:02:43;;;;;;;4.97;2.83;;;;;;;9.96;100.00;101660.75;5204879;28;20017;-74
2022/08/21 04:05:26;;;;;;;8.63;3.78;;;;;;;9.98;100.00;101666.81;5203089;28;20458;-74
2022/08/21 04:08:01;;;;;;;9.07;4.10;;;;;;;9.99;100.00;101665.84;5204636;28;20029;-75
2022/08/21 04:10:35;;;;;;;12.32;3.90;;;;;;;10.00;100.00;101670.22;5204925;28;20037;-73
2022/08/21 04:13:07;;;;;;;8.45;3.60;;;;;;;10.02;100.00;101670.91;5204509;28;20021;-74
2022/08/21 04:15:38;;;;;;;9.25;3.63;;;;;;;10.03;100.00;101667.22;5204236;28;20600;-74
2022/08/21 04:18:09;;;;;;;9.55;2.65;;;;;;;10.04;100.00;101668.06;5204438;28;20025;-74
2022/08/21 04:20:42;;;;;;;7.07;3.03;;;;;;;10.04;100.00;101676.97;5204289;28;20395;-74
2022/08/21 04:23:13;;;;;;;3.10;2.42;;;;;;;10.05;100.00;101670.63;5204421;28;20029;-74
2022/08/21 04:25:43;;;;;;;9.27;2.88;;;;;;;10.07;100.00;101676.69;5204020;28;20044;-74
2022/08/21 04:28:14;;;;;;;6.55;2.63;;;;;;;10.08;100.00;101681.03;5204332;28;20025;-74
2022/08/21 04:30:45;;;;;;;5.72;2.58;;;;;;;10.07;100.00;101684.72;5204001;28;20376;-74
2022/08/21 04:33:15;;;;;;;6.63;3.33;;;;;;;10.07;100.00;101681.19;5204097;28;20482;-74
2022/08/21 04:35:46;;;;;;;6.65;3.05;;;;;;;10.06;100.00;101677.69;5203407;28;20033;-73
2022/08/21 04:38:18;;;;;;;6.07;2.80;;;;;;;10.03;100.00;101683.31;5203015;28;20028;-73
2022/08/21 04:40:49;;;;;;;4.38;3.00;;;;;;;10.03;100.00;101690.50;5203854;28;20026;-73
2022/08/21 04:43:22;;;;;;;5.75;3.13;;;;;;;10.03;100.00;101698.56;5204089;28;20051;-74
2022/08/21 04:45:54;;;;;;;6.88;3.10;;;;;;;10.05;100.00;101691.22;5203897;28;20360;-73
2022/08/21 04:48:25;;;;;;;8.02;3.22;;;;;;;10.07;100.00;101691.91;5203964;28;20096;-73
2022/08/21 04:51:15;;;;;;;7.43;3.88;;;;;;;10.07;100.00;101687.41;5204044;28;20024;-73
2022/08/21 04:54:08;;;;;;;13.05;3.67;;;;;;;10.10;100.00;101691.66;5202081;28;20887;-73
2022/08/21 04:56:45;;;;;;;15.80;3.83;;;;;;;10.13;100.00;101689.50;5203994;28;20487;-74
2022/08/21 04:59:20;;;;;;;11.27;4.40;;;;;;;10.16;100.00;101691.06;5203571;28;20036;-74
2022/08/21 05:01:53;;;;;;;10.40;3.78;;;;;;;10.20;100.00;101692.50;5203623;28;20026;-74
2022/08/21 05:04:28;;;;;;;12.38;4.20;;;;;;;10.22;100.00;101695.00;5202684;28;20031;-74
2022/08/21 05:07:03;;;;;;;10.90;4.47;;;;;;;10.24;100.00;101696.59;5203690;28;20021;-74
2022/08/21 05:09:34;;;;;;;11.27;4.70;;;;;;;10.25;100.00;101703.66;5203905;28;20029;-74
2022/08/21 05:12:05;;;;;;;11.23;4.15;;;;;;;10.26;100.00;101699.97;5203697;28;20101;-74
2022/08/21 05:14:36;;;;;;;13.95;5.05;;;;;;;10.28;100.00;101706.03;5203549;28;20121;-74
2022/08/21 05:17:07;;;;;;;9.43;4.10;;;;;;;10.36;100.00;101708.84;5203310;28;20471;-74
2022/08/21 05:19:37;;;;;;;9.73;5.18;;;;;;;10.44;100.00;101709.97;5203485;28;20582;-74
2022/08/21 05:22:09;;;;;;;8.80;3.63;;;;;;;10.51;100.00;101709.25;5202350;28;20033;-75
2022/08/21 05:24:39;;;;;;;11.82;3.63;;;;;;;10.56;100.00;101706.97;5203039;28;20021;-74
2022/08/21 05:27:10;;;;;;;12.35;4.57;;;;;;;10.62;100.00;101710.91;5201826;28;20017;-73
2022/08/21 05:29:40;;;;;;;11.77;4.15;;;;;;;10.69;100.00;101714.69;5202752;28;20025;-73
2022/08/21 05:32:12;;;;;;;8.52;3.80;;;;;;;10.80;100.00;101708.34;5203533;28;20029;-73
2022/08/21 05:34:43;;;;;;;11.40;4.05;;;;;;;10.94;100.00;101707.81;5202921;28;20407;-73
2022/08/21 05:37:13;;;;;;;14.05;5.43;;;;;;;11.10;100.00;101705.38;5203078;28;20040;-72
2022/08/21 05:39:45;;;;;;;17.95;5.70;;;;;;;11.26;100.00;101712.78;5202576;28;20111;-73
2022/08/21 05:42:16;;;;;;;11.32;4.95;;;;;;;11.40;100.00;101714.97;5203265;28;20017;-72
2022/08/21 05:44:46;;;;;;;11.13;4.57;;;;;;;11.53;100.00;101714.59;5202680;28;20032;-72
2022/08/21 05:47:17;;;;;;;11.88;4.53;;;;;;;11.70;100.00;101717.44;5203230;28;20025;-73
2022/08/21 05:49:47;;;;;;;15.38;4.80;;;;;;;11.87;100.00;101724.72;5203225;28;20030;-73
2022/08/21 05:52:20;;;;;;;14.85;4.30;;;;;;;12.08;100.00;101724.41;5202798;28;20035;-73
2022/08/21 05:54:53;;;;;;;14.45;4.95;;;;;;;12.43;100.00;101720.81;5202492;28;20032;-73
2022/08/21 05:57:25;;;;;;;14.45;4.38;;;;;;;13.18;100.00;101726.47;5198766;28;20356;-73
2022/08/21 05:59:55;;;;;;;11.38;3.90;;;;;;;14.10;100.00;101725.53;5189324;28;20021;-73
2022/08/21 06:02:26;;;;;;;15.85;4.00;;;;;;;15.02;100.00;101720.72;5199676;28;20082;-73
2022/08/21 06:04:57;;;;;;;11.55;3.00;;;;;;;15.79;100.00;101721.72;5197579;28;20053;-73
2022/08/21 06:07:28;;;;;;;17.45;3.15;;;;;;;16.30;100.00;101713.03;5199416;28;20145;-73
2022/08/21 06:09:59;;;;;;;7.88;2.50;;;;;;;17.04;100.00;101697.72;5199846;28;20072;-73
2022/08/21 06:12:29;;;;;;;13.98;3.45;;;;;;;17.65;100.00;101704.72;5200347;28;20116;-74
2022/08/21 06:15:00;;;;;;;9.20;2.53;;;;;;;18.23;100.00;101706.38;5198430;28;20035;-73
2022/08/21 06:17:31;;;;;;;10.63;2.55;;;;;;;18.75;100.00;101710.53;5188824;28;20404;-74
2022/08/21 06:20:02;;;;;;;8.93;2.13;;;;;;;19.14;100.00;101711.81;5196904;28;20442;-73
2022/08/21 06:22:33;;;;;;;7.38;1.92;;;;;;;19.44;100.00;101722.41;5200283;28;20083;-74
2022/08/21 06:25:04;;;;;;;10.00;2.00;;;;;;;19.83;100.00;101718.97;5195424;28;20029;-74
2022/08/21 06:27:35;;;;;;;10.98;2.20;;;;;;;20.12;100.00;101717.75;5195587;28;20365;-74
2022/08/21 06:30:07;;;;;;;7.18;2.45;;;;;;;20.37;100.00;101723.44;5191470;28;20053;-74
2022/08/21 06:32:37;;;;;;;7.93;2.15;;;;;;;20.75;100.00;101728.28;5205167;28;20484;-74
2022/08/21 06:35:08;;;;;;;7.75;2.35;;;;;;;20.93;100.00;101737.47;5204065;28;20025;-73
2022/08/21 06:37:39;;;;;;;6.82;1.90;;;;;;;21.52;100.00;101740.22;5205058;28;20497;-73
2022/08/21 06:40:10;;;;;;;8.77;2.30;;;;;;;21.79;100.00;101733.59;5204301;28;20025;-73
2022/08/21 06:42:40;;;;;;;7.78;1.88;;;;;;;21.76;100.00;101736.75;5205281;28;20034;-74
2022/08/21 06:45:11;;;;;;;9.07;1.95;;;;;;;21.77;100.00;101732.13;5204412;28;20021;-74
2022/08/21 06:47:41;;;;;;;11.13;2.35;;;;;;;21.89;100.00;101728.47;5205059;28;20018;-73
2022/08/21 06:50:12;;;;;;;5.50;1.90;;;;;;;21.40;100.00;101720.97;5204497;28;20144;-73
2022/08/21 06:52:42;;;;;;;5.40;1.95;;;;;;;21.62;100.00;101722.31;5204342;28;20055;-74
2022/08/21 06:55:14;;;;;;;11.10;1.90;;;;;;;21.84;100.00;101720.09;5204214;28;20489;-73
2022/08/21 06:57:44;;;;;;;13.40;2.25;;;;;;;21.87;100.00;101716.91;5203301;28;20075;-73
2022/08/21 07:00:15;;;;;;;11.60;2.30;;;;;;;22.33;100.00;101726.69;5202811;28;20021;-73
2022/08/21 07:02:45;;;;;;;6.93;2.10;;;;;;;22.81;100.00;101717.00;5204971;28;20502;-73
2022/08/21 07:05:16;;;;;;;9.73;2.17;;;;;;;23.17;100.00;101716.22;5203217;28;20025;-73
2022/08/21 07:07:47;;;;;;;8.07;2.08;;;;;;;22.64;100.00;101727.69;5205031;28;20027;-73
2022/08/21 07:10:18;;;;;;;10.95;2.33;;;;;;;21.85;100.00;101721.78;5204183;28;20036;-74
2022/08/21 07:12:50;;;;;;;9.23;2.47;;;;;;;22.21;100.00;101712.09;5204745;28;20450;-73
2022/08/21 07:15:20;;;;;;;12.10;3.08;;;;;;;21.96;100.00;101712.88;5203846;28;20475;-73
2022/08/21 07:17:51;;;;;;;7.68;1.90;;;;;;;22.47;100.00;101719.22;5204632;28;20084;-73
2022/08/21 07:20:21;;;;;;;6.28;2.30;;;;;;;23.05;100.00;101721.63;5204240;28;20026;-73
2022/08/21 07:22:52;;;;;;;7.85;2.40;;;;;;;23.16;100.00;101720.03;5204408;28;20056;-73
2022/08/21 07:25:22;;;;;;;11.43;2.40;;;;;;;23.76;100.00;101722.84;5203583;28;20447;-73
2022/08/21 07:27:53;;;;;;;9.02;2.10;;;;;;;23.42;100.00;101724.31;5204178;28;20035;-73
2022/08/21 07:30:24;;;;;;;9.95;1.63;;;;;;;23.80;100.00;101725.94;5203865;28;20052;-73
2022/08/21 07:32:55;;;;;;;6.45;2.00;;;;;;;23.95;100.00;101718.97;5204240;28;20025;-73
2022/08/21 07:35:27;;;;;;;8.40;2.30;;;;;;;24.16;100.00;101714.84;5203097;28;20040;-74
2022/08/21 07:37:58;;;;;;;12.57;2.30;;;;;;;24.56;100.00;101729.84;5204056;28;20544;-74
2022/08/21 07:40:28;;;;;;;9.13;1.83;;;;;;;24.48;100.00;101723.63;5203173;28;20025;-73
2022/08/21 07:43:02;;;;;;;10.23;1.85;;;;;;;24.16;100.00;101733.22;5204086;28;20399;-73
2022/08/21 07:45:33;;;;;;;10.07;2.08;;;;;;;24.08;100.00;101728.06;5203421;28;20036;-73
2022/08/21 07:48:04;;;;;;;10.07;2.28;;;;;;;24.31;100.00;101732.75;5204257;28;20017;-73
2022/08/21 07:50:35;;;;;;;10.00;2.20;;;;;;;23.76;100.00;101731.91;5203528;28;20026;-73
2022/08/21 07:53:07;;;;;;;11.40;2.17;;;;;;;24.56;100.00;101729.84;5203671;28;20089;-74
2022/08/21 07:55:38;;;;;;;11.50;2.42;;;;;;;24.81;100.00;101733.16;5204574;28;20541;-73
2022/08/21 07:58:08;;;;;;;10.90;2.25;;;;;;;24.87;100.00;101729.47;5203536;28;20029;-75
2022/08/21 08:00:40;;;;;;;7.22;1.60;;;;;;;25.28;100.00;101722.97;5203894;28;20112;-74
2022/08/21 08:03:10;;;;;;;8.82;1.90;;;;;;;25.48;100.00;101722.53;5203329;28;20072;-74
2022/08/21 08:05:41;;;;;;;9.55;1.98;;;;;;;25.53;100.00;101722.63;5202740;28;20041;-73
2022/08/21 08:08:12;;;;;;;10.25;2.40;;;;;;;26.08;94.09;101722.03;5203198;28;20024;-73
2022/08/21 08:10:43;;;;;;;13.73;1.90;;;;;;;26.34;97.47;101719.72;5203820;28;20475;-73
2022/08/21 08:13:14;;;;;;;8.07;2.10;;;;;;;26.57;90.92;101718.75;5202855;28;20060;-73
2022/08/21 08:15:44;;;;;;;10.77;2.50;;;;;;;26.25;91.58;101715.72;5202972;28;20033;-75
2022/08/21 08:18:15;;;;;;;9.30;2.17;;;;;;;25.67;97.03;101711.38;5202386;28;20029;-73
2022/08/21 08:20:46;;;;;;;10.93;2.08;;;;;;;25.67;95.11;101711.38;5202992;28;20021;-73
2022/08/21 08:23:16;;;;;;;10.80;1.95;;;;;;;25.18;99.09;101713.69;5202895;28;20032;-73
2022/08/21 08:25:47;;;;;;;12.07;2.33;;;;;;;24.69;100.00;101704.88;5202285;28;20079;-74
2022/08/21 08:28:17;;;;;;;8.73;2.47;;;;;;;24.92;100.00;101706.78;5196445;28;20025;-73
2022/08/21 08:30:49;;;;;;;6.95;1.60;;;;;;;25.20;100.00;101698.66;5195635;28;20405;-74
2022/08/21 08:33:19;;;;;;;7.90;1.73;;;;;;;25.45;100.00;101698.31;5203402;28;20363;-73
2022/08/21 08:35:51;;;;;;;6.47;1.58;;;;;;;25.91;100.00;101692.88;5202273;28;20104;-74
2022/08/21 08:38:24;;;;;;;7.13;1.90;;;;;;;26.15;95.41;101696.28;5202584;28;20519;-73
2022/08/21 08:41:12;;;;;;;8.65;2.10;;;;;;;25.41;100.00;101699.06;5202664;28;20040;-74
2022/08/21 08:43:51;;;;;;;10.38;1.95;;;;;;;25.15;97.47;101694.94;5202977;28;20537;-73
2022/08/21 08:46:34;;;;;;;7.95;1.80;;;;;;;25.06;100.00;101688.97;5202082;28;20064;-74
2022/08/21 08:49:13;;;;;;;6.72;1.63;;;;;;;25.18;100.00;101688.97;5202882;28;20025;-73
2022/08/21 08:51:51;;;;;;;13.60;1.92;;;;;;;25.23;100.00;101689.91;5202012;28;20407;-74
2022/08/21 08:54:44;;;;;;;6.50;1.35;;;;;;;25.29;98.09;101691.66;5200946;28;20025;-73
2022/08/21 08:57:18;;;;;;;10.60;1.90;;;;;;;25.33;95.84;101685.69;5201988;28;20025;-73
2022/08/21 08:59:52;;;;;;;8.23;2.23;;;;;;;25.42;91.88;101679.56;5202093;28;20017;-74
2022/08/21 09:02:23;;;;;;;9.80;1.53;;;;;;;25.16;96.87;101694.72;5202205;28;20013;-73
2022/08/21 09:04:55;;;;;;;11.35;1.65;;;;;;;25.08;97.69;101694.25;5201937;28;20113;-74
2022/08/21 09:08:01;;;;;;;10.27;1.20;;;;;;;24.96;96.87;101688.75;5201923;28;20029;-74
2022/08/21 09:10:58;;;;;;;5.50;1.80;;;;;;;25.53;98.48;101677.84;5202337;28;20030;-74
2022/08/21 09:13:58;;;;;;;5.13;1.17;;;;;;;26.78;84.74;101675.81;5201934;28;20112;-73
2022/08/21 09:17:05;;;;;;;7.95;1.70;;;;;;;26.78;81.98;101678.59;5199791;28;20021;-73
2022/08/21 09:20:14;;;;;;;7.00;1.60;;;;;;;26.51;79.19;101682.06;5202066;28;20029;-74
2022/08/21 09:23:08;;;;;;;4.55;1.38;;;;;;;25.88;82.11;101671.38;5201807;28;20030;-74
2022/08/21 09:25:58;;;;;;;5.70;1.30;;;;;;;26.02;84.64;101672.72;5191177;28;20014;-74
2022/08/21 09:28:35;;;;;;;6.05;1.27;;;;;;;25.83;81.79;101669.38;5196759;28;20032;-74
2022/08/21 09:31:08;;;;;;;3.72;1.40;;;;;;;25.83;82.80;101670.19;5201398;28;20041;-74
2022/08/21 09:33:38;;;;;;;6.68;1.70;;;;;;;25.55;81.24;101667.44;5201857;28;20026;-74
2022/08/21 09:36:09;;;;;;;12.23;2.38;;;;;;;25.24;86.32;101677.84;5201183;28;20399;-74
2022/08/21 09:38:40;;;;;;;7.50;1.50;;;;;;;25.12;85.47;101677.06;5201903;28;20041;-73
2022/08/21 09:41:11;;;;;;;7.95;1.75;;;;;;;24.80;90.99;101673.88;5201709;28;20467;-74
2022/08/21 09:43:53;;;;;;;10.07;1.88;;;;;;;24.51;95.37;101679.25;5201965;28;20111;-73
2022/08/21 09:46:25;;;;;;;6.22;1.60;;;;;;;24.78;94.44;101674.09;5189184;28;20026;-74
2022/08/21 09:48:59;;;;;;;5.20;1.38;;;;;;;25.19;89.89;101675.00;5201980;28;20026;-74
2022/08/21 09:51:35;;;;;;;8.25;1.88;;;;;;;25.72;87.84;101673.00;5200540;28;20033;-73
2022/08/21 09:54:05;;;;;;;10.23;2.20;;;;;;;26.24;85.01;101661.78;5200648;28;20484;-74
2022/08/21 09:59:32;;;;;;;14.00;1.90;;;;;;;26.44;75.73;101662.13;5190919;28;20395;-73
2022/08/21 10:02:32;;;;;;;10.37;1.87;;;;;;;25.97;75.87;101656.13;5201681;28;20029;-74
2022/08/21 10:05:15;;;;;;;7.15;2.03;;;;;;;24.73;82.70;101657.53;5204974;28;20025;-74
2022/08/21 10:07:46;;;;;;;6.28;1.67;;;;;;;24.12;90.89;101658.00;5205976;28;20029;-74
2022/08/21 10:10:23;;;;;;;10.57;1.80;;;;;;;24.03;94.75;101663.81;5205469;28;20024;-74
2022/08/21 10:13:16;;;;;;;10.40;2.22;;;;;;;23.77;99.13;101658.75;5205640;28;20040;-74
2022/08/21 10:15:54;;;;;;;10.25;2.10;;;;;;;23.69;100.00;101657.19;5194584;28;20030;-73
2022/08/21 10:18:35;;;;;;;12.68;2.15;;;;;;;23.74;100.00;101659.22;5204928;28;20054;-73
2022/08/21 10:21:20;;;;;;;9.27;2.40;;;;;;;23.87;100.00;101656.28;5191692;28;20032;-74
2022/08/21 10:24:27;;;;;;;13.32;2.10;;;;;;;24.43;91.88;101649.44;5205192;28;20032;-74
2022/08/21 10:27:32;;;;;;;6.55;1.85;;;;;;;24.28;93.58;101657.28;5193772;28;20057;-74
2022/08/21 10:30:11;;;;;;;11.32;1.75;;;;;;;24.40;97.67;101660.91;5191600;28;20455;-74
2022/08/21 10:33:00;;;;;;;10.98;1.88;;;;;;;24.44;96.60;101659.34;5205221;28;20021;-74
2022/08/21 10:35:36;;;;;;;9.25;1.88;;;;;;;25.07;97.96;101649.50;5204456;28;20046;-74
2022/08/21 10:38:41;;;;;;;4.63;1.50;;;;;;;25.52;88.48;101649.56;5205052;28;20368;-74
2022/08/21 10:41:28;;;;;;;6.70;1.57;;;;;;;25.92;88.49;101637.66;5205123;28;20386;-74
2022/08/21 10:44:09;;;;;;;10.70;1.58;;;;;;;26.03;83.00;101639.47;5204684;28;20064;-74
2022/08/21 10:47:04;;;;;;;8.70;1.63;;;;;;;26.09;82.75;101630.22;5205472;28;20033;-74
2022/08/21 10:49:51;;;;;;;7.65;2.00;;;;;;;25.80;84.00;101636.88;5192357;28;20056;-74
2022/08/21 10:52:36;;;;;;;5.93;1.83;;;;;;;25.73;86.79;101634.25;5189789;28;20034;-74
2022/08/21 10:55:09;;;;;;;7.20;2.22;;;;;;;26.16;77.70;101634.72;5204355;28;20029;-74
2022/08/21 10:58:11;;;;;;;10.15;1.98;;;;;;;25.78;79.63;101642.63;5204942;28;20028;-74
2022/08/21 11:00:48;;;;;;;6.28;1.55;;;;;;;25.72;82.33;101638.09;5191344;28;20676;-74
2022/08/21 11:03:38;;;;;;;8.05;2.10;;;;;;;25.86;83.19;101641.41;5204751;28;20076;-74
2022/08/21 11:06:29;;;;;;;10.90;1.98;;;;;;;25.72;83.92;101640.00;5204361;28;20101;-74
2022/08/21 11:09:15;;;;;;;8.88;1.67;;;;;;;25.56;80.94;101637.00;5204350;28;20032;-75
2022/08/21 11:12:11;;;;;;;11.75;2.42;;;;;;;25.58;87.21;101640.31;5204614;28;20021;-74
2022/08/21 11:14:49;;;;;;;;;;;;;;;25.69;85.82;101635.00;5203886;28;20022;-75
2022/08/21 11:17:30;;;;;;;7.97;2.15;;;;;;;26.07;81.29;101637.06;5204226;28;19917;-74
2022/08/21 11:20:30;;;;;;;7.50;1.40;;;;;;;26.57;80.87;101630.69;5203553;28;20025;-74
2022/08/21 11:23:11;;;;;;;9.63;2.40;;;;;;;26.60;75.57;101631.00;5189974;28;20029;-75
2022/08/21 11:25:51;;;;;;;8.73;2.13;;;;;;;26.42;77.61;101641.44;5203501;28;20029;-74
2022/08/21 11:28:28;;;;;;;7.40;1.95;;;;;;;26.83;76.21;101637.34;5194822;28;20035;-74
2022/08/21 11:31:06;;;;;;;6.22;2.00;;;;;;;27.01;78.74;101639.81;5204349;28;20060;-74
2022/08/21 11:33:38;;;;;;;7.05;1.63;;;;;;;26.87;72.51;101638.53;5204537;28;20103;-74
2022/08/21 11:36:15;;;;;;;9.15;1.90;;;;;;;26.88;75.00;101639.34;5203207;28;20045;-74
2022/08/21 11:39:05;;;;;;;5.43;1.85;;;;;;;26.75;73.39;101635.03;5202913;28;20033;-74
2022/08/21 11:41:42;;;;;;;12.57;1.90;;;;;;;26.98;71.86;101625.72;5192251;28;20033;-74
2022/08/21 11:44:29;;;;;;;5.45;1.48;;;;;;;26.64;74.79;101636.00;5201897;28;20029;-74
2022/08/21 11:47:15;;;;;;;11.07;2.25;;;;;;;26.67;73.01;101630.00;5204588;28;20034;-74
2022/08/21 11:50:10;;;;;;;9.75;1.95;;;;;;;26.49;73.91;101631.13;5192696;28;20033;-74
2022/08/21 11:52:50;;;;;;;11.10;2.28;;;;;;;26.18;75.26;101633.38;5203365;28;20426;-74